Time;durP1;ratioP1;P1;durP2;ratioP2;P2;SDS_P1;SDS_P2;PMS_P1;PMS_P2;Temp;Humidity;BMP_temperature;BMP_pressure;BME280_temperature;BME280_humidity;BME280_pressure;Samples;Min_cycle;Max_cycle;Signal;HPM_P1;HPM_P2
2022/05/19 00:01:38;;;;;;;11.27;3.83;;;;;;;;;;5051966;28;20055;-65
2022/05/19 00:04:04;;;;;;;11.98;3.03;;;;;;;;;;5051615;28;20032;-65
2022/05/19 00:06:30;;;;;;;16.95;3.63;;;;;;;;;;5052307;28;20374;-65
2022/05/19 00:08:56;;;;;;;14.82;2.97;;;;;;;;;;5050900;28;20107;-65
2022/05/19 00:11:26;;;;;;;16.17;3.42;;;;;;;;;;5051781;28;20449;-65
2022/05/19 00:13:52;;;;;;;15.65;3.72;;;;;;;;;;5054729;28;20043;-65
2022/05/19 00:16:18;;;;;;;12.40;3.20;;;;;;;;;;5051987;28;20094;-65
2022/05/19 00:18:45;;;;;;;12.48;2.65;;;;;;;;;;5051261;28;20070;-65
2022/05/19 00:21:11;;;;;;;19.02;4.32;;;;;;;;;;5052163;28;20082;-65
2022/05/19 00:23:37;;;;;;;12.00;2.92;;;;;;;;;;5051665;28;20504;-65
2022/05/19 00:26:04;;;;;;;18.33;3.42;;;;;;;;;;5051585;28;20029;-65
2022/05/19 00:28:30;;;;;;;20.48;3.58;;;;;;;;;;5051985;28;20053;-65
2022/05/19 00:30:56;;;;;;;17.02;3.00;;;;;;;;;;5051153;28;20037;-65
2022/05/19 00:33:23;;;;;;;14.90;3.47;;;;;;;;;;5051805;28;20021;-65
2022/05/19 00:35:49;;;;;;;21.02;4.20;;;;;;;;;;5051694;28;20025;-65
2022/05/19 00:38:15;;;;;;;16.38;3.63;;;;;;;;;;5051528;28;20465;-65
2022/05/19 00:40:46;;;;;;;16.90;3.67;;;;;;;;;;5051812;28;20033;-65
2022/05/19 00:43:12;;;;;;;19.55;4.20;;;;;;;;;;5051826;28;20037;-65
2022/05/19 00:45:42;;;;;;;26.52;5.00;;;;;;;;;;5051283;28;20044;-65
2022/05/19 00:48:13;;;;;;;20.63;4.75;;;;;;;;;;5051570;28;20461;-65
2022/05/19 00:50:53;;;;;;;17.42;4.05;;;;;;;;;;5051637;28;20396;-65
2022/05/19 00:53:28;;;;;;;29.20;3.80;;;;;;;;;;5036814;28;20117;-65
2022/05/19 00:55:55;;;;;;;20.95;4.53;;;;;;;;;;5051379;28;20079;-65
2022/05/19 00:58:27;;;;;;;21.10;4.20;;;;;;;;;;5051886;28;20105;-65
2022/05/19 01:00:54;;;;;;;20.33;3.97;;;;;;;;;;5049481;28;20405;-65
2022/05/19 01:03:21;;;;;;;23.73;4.80;;;;;;;;;;5051576;28;20013;-65
2022/05/19 01:05:49;;;;;;;17.65;4.30;;;;;;;;;;5051452;28;20033;-65
2022/05/19 01:08:24;;;;;;;23.83;4.97;;;;;;;;;;5051424;28;20060;-65
2022/05/19 01:10:51;;;;;;;18.85;4.10;;;;;;;;;;5051089;28;20029;-65
2022/05/19 01:13:18;;;;;;;21.27;4.93;;;;;;;;;;5055251;28;20099;-65
2022/05/19 01:15:45;;;;;;;24.33;5.22;;;;;;;;;;5051383;28;20052;-65
2022/05/19 01:18:13;;;;;;;24.67;3.88;;;;;;;;;;5051272;28;20040;-65
2022/05/19 01:20:39;;;;;;;18.70;3.90;;;;;;;;;;5053766;28;20080;-65
2022/05/19 01:23:12;;;;;;;19.27;3.50;;;;;;;;;;5054639;28;20066;-65
2022/05/19 01:25:46;;;;;;;23.20;4.95;;;;;;;;;;5054835;28;20033;-65
2022/05/19 01:28:12;;;;;;;29.38;4.15;;;;;;;;;;5054880;28;20032;-65
2022/05/19 01:30:38;;;;;;;17.73;4.32;;;;;;;;;;5054609;28;20481;-65
2022/05/19 01:33:05;;;;;;;24.17;4.43;;;;;;;;;;5054577;28;20032;-65
2022/05/19 01:35:33;;;;;;;16.73;4.65;;;;;;;;;;5054997;28;20071;-65
2022/05/19 01:38:00;;;;;;;18.98;3.78;;;;;;;;;;5054650;28;20036;-65
2022/05/19 01:40:52;;;;;;;17.38;3.65;;;;;;;;;;5053425;28;20481;-65
2022/05/19 01:43:29;;;;;;;17.75;3.67;;;;;;;;;;5035729;28;20029;-65
2022/05/19 01:46:03;;;;;;;22.55;4.50;;;;;;;;;;5043491;28;20041;-65
2022/05/19 01:48:49;;;;;;;18.35;3.33;;;;;;;;;;5054222;28;20489;-65
2022/05/19 01:51:15;;;;;;;26.88;4.82;;;;;;;;;;5012449;28;20033;-65
2022/05/19 01:53:49;;;;;;;27.02;4.05;;;;;;;;;;5012555;28;20053;-65
2022/05/19 01:56:20;;;;;;;12.93;3.97;;;;;;;;;;5012374;28;20129;-65
2022/05/19 01:58:49;;;;;;;22.63;3.28;;;;;;;;;;5012280;28;20135;-65
2022/05/19 02:01:17;;;;;;;24.02;3.53;;;;;;;;;;5012144;28;20149;-65
2022/05/19 02:03:43;;;;;;;30.75;3.78;;;;;;;;;;5012518;28;20058;-65
2022/05/19 02:06:17;;;;;;;28.60;4.00;;;;;;;;;;5012300;28;20038;-65
2022/05/19 02:08:46;;;;;;;19.60;3.90;;;;;;;;;;5012378;28;20041;-65
2022/05/19 02:11:14;;;;;;;23.10;3.60;;;;;;;;;;5012099;28;20121;-65
2022/05/19 02:13:40;;;;;;;23.98;3.65;;;;;;;;;;5011792;28;20030;-65
2022/05/19 02:16:08;;;;;;;23.20;3.75;;;;;;;;;;5012070;28;20453;-65
2022/05/19 02:18:34;;;;;;;29.42;3.10;;;;;;;;;;5012265;28;20037;-65
2022/05/19 02:21:02;;;;;;;22.23;3.53;;;;;;;;;;5011750;28;20034;-65
2022/05/19 02:23:30;;;;;;;24.77;4.00;;;;;;;;;;5011914;28;20080;-65
2022/05/19 02:25:56;;;;;;;14.15;3.13;;;;;;;;;;5012108;28;20061;-65
2022/05/19 02:28:26;;;;;;;14.95;3.78;;;;;;;;;;5023354;28;20034;-65
2022/05/19 02:30:54;;;;;;;16.77;3.85;;;;;;;;;;5049515;28;20107;-65
2022/05/19 02:33:22;;;;;;;17.42;3.38;;;;;;;;;;5053486;28;20017;-65
2022/05/19 02:35:48;;;;;;;17.85;3.50;;;;;;;;;;5053917;28;20037;-65
2022/05/19 02:38:15;;;;;;;24.77;3.72;;;;;;;;;;5053457;28;20563;-65
2022/05/19 02:40:42;;;;;;;30.27;3.55;;;;;;;;;;5053642;28;20039;-65
2022/05/19 02:43:08;;;;;;;21.38;3.65;;;;;;;;;;5053002;28;20025;-65
2022/05/19 02:45:34;;;;;;;22.88;3.97;;;;;;;;;;5053482;28;20498;-65
2022/05/19 02:48:01;;;;;;;10.90;3.13;;;;;;;;;;5053480;28;20469;-65
2022/05/19 02:50:27;;;;;;;21.08;3.03;;;;;;;;;;5053520;28;20044;-65
2022/05/19 02:52:53;;;;;;;18.10;2.92;;;;;;;;;;5053235;28;20090;-65
2022/05/19 02:55:20;;;;;;;19.05;3.42;;;;;;;;;;5053142;28;20458;-65
2022/05/19 02:57:48;;;;;;;21.50;3.90;;;;;;;;;;5053054;28;20084;-65
2022/05/19 03:00:18;;;;;;;23.05;3.67;;;;;;;;;;5052951;28;20033;-65
2022/05/19 03:02:44;;;;;;;19.48;3.17;;;;;;;;;;5053279;28;20512;-65
2022/05/19 03:05:12;;;;;;;22.70;3.00;;;;;;;;;;5052820;28;20029;-65
2022/05/19 03:07:38;;;;;;;22.75;3.38;;;;;;;;;;5053092;28;20032;-65
2022/05/19 03:10:05;;;;;;;27.25;4.30;;;;;;;;;;5052936;28;20166;-65
2022/05/19 03:12:31;;;;;;;20.17;3.53;;;;;;;;;;5054817;28;20021;-65
2022/05/19 03:14:58;;;;;;;16.52;3.17;;;;;;;;;;5056953;28;20035;-65
2022/05/19 03:17:24;;;;;;;22.38;3.65;;;;;;;;;;5052510;28;20024;-65
2022/05/19 03:19:52;;;;;;;19.05;2.67;;;;;;;;;;5052914;28;20083;-65
2022/05/19 03:22:19;;;;;;;20.58;2.72;;;;;;;;;;5052691;28;20032;-65
2022/05/19 03:24:47;;;;;;;22.42;2.92;;;;;;;;;;5052769;28;20114;-65
2022/05/19 03:27:13;;;;;;;19.95;3.03;;;;;;;;;;5052046;28;20057;-65
2022/05/19 03:29:39;;;;;;;16.95;3.38;;;;;;;;;;5052603;28;20060;-65
2022/05/19 03:32:05;;;;;;;15.73;3.33;;;;;;;;;;5051440;28;20075;-65
2022/05/19 03:34:33;;;;;;;18.17;2.85;;;;;;;;;;5052654;28;20029;-65
2022/05/19 03:37:02;;;;;;;15.75;3.38;;;;;;;;;;5052807;28;20091;-65
2022/05/19 03:39:28;;;;;;;22.17;3.88;;;;;;;;;;5052051;28;20402;-65
2022/05/19 03:41:55;;;;;;;21.20;3.38;;;;;;;;;;5051758;28;20504;-65
2022/05/19 03:44:21;;;;;;;14.60;3.17;;;;;;;;;;5051956;28;20114;-65
2022/05/19 03:46:47;;;;;;;17.08;4.53;;;;;;;;;;5051845;28;20032;-65
2022/05/19 03:49:14;;;;;;;15.57;3.10;;;;;;;;;;5035560;28;20036;-65
2022/05/19 03:51:42;;;;;;;14.13;2.95;;;;;;;;;;5047781;28;20109;-65
2022/05/19 03:54:08;;;;;;;25.60;3.60;;;;;;;;;;5040291;28;20029;-65
2022/05/19 03:56:35;;;;;;;22.02;3.75;;;;;;;;;;5040158;28;20049;-65
2022/05/19 03:59:02;;;;;;;15.90;4.18;;;;;;;;;;5047812;28;20041;-65
2022/05/19 04:01:29;;;;;;;20.85;4.13;;;;;;;;;;5051145;28;20037;-65
2022/05/19 04:03:56;;;;;;;17.60;2.90;;;;;;;;;;5051981;28;20515;-65
2022/05/19 04:06:23;;;;;;;20.67;3.30;;;;;;;;;;5051432;28;20021;-65
2022/05/19 04:08:50;;;;;;;17.58;3.22;;;;;;;;;;5053233;28;20061;-65
2022/05/19 04:11:16;;;;;;;19.75;3.85;;;;;;;;;;5049380;28;20025;-65
2022/05/19 04:13:42;;;;;;;18.95;3.70;;;;;;;;;;5059243;28;20056;-65
2022/05/19 04:16:08;;;;;;;18.80;2.95;;;;;;;;;;5052172;28;20025;-65
2022/05/19 04:18:35;;;;;;;16.48;3.10;;;;;;;;;;5051980;28;20031;-65
2022/05/19 04:21:01;;;;;;;25.45;4.07;;;;;;;;;;5043084;28;20479;-63
2022/05/19 04:23:27;;;;;;;29.45;4.07;;;;;;;;;;5051070;28;20048;-63
2022/05/19 04:25:53;;;;;;;15.48;3.25;;;;;;;;;;5051901;28;20056;-64
2022/05/19 04:28:21;;;;;;;20.30;3.15;;;;;;;;;;5051301;28;20025;-64
2022/05/19 04:30:47;;;;;;;12.52;3.08;;;;;;;;;;5052114;28;20067;-64
2022/05/19 04:33:13;;;;;;;10.43;3.00;;;;;;;;;;5043491;28;20068;-64
2022/05/19 04:35:39;;;;;;;17.50;3.42;;;;;;;;;;5047805;28;20041;-63
2022/05/19 04:38:07;;;;;;;20.50;5.22;;;;;;;;;;5043007;28;20052;-63
2022/05/19 04:40:35;;;;;;;13.52;3.13;;;;;;;;;;5034205;28;20025;-66
2022/05/19 04:43:01;;;;;;;16.08;3.28;;;;;;;;;;5035539;28;20025;-67
2022/05/19 04:45:27;;;;;;;18.15;3.03;;;;;;;;;;5035632;28;20448;-66
2022/05/19 04:47:53;;;;;;;21.23;3.67;;;;;;;;;;5031029;28;20025;-67
2022/05/19 04:50:20;;;;;;;18.30;4.78;;;;;;;;;;5034834;28;20029;-72
2022/05/19 04:52:47;;;;;;;14.15;2.47;;;;;;;;;;5060534;28;20025;-64
2022/05/19 04:55:13;;;;;;;11.50;2.95;;;;;;;;;;5046738;28;20497;-64
2022/05/19 04:57:41;;;;;;;23.52;2.92;;;;;;;;;;5035240;28;20107;-64
2022/05/19 05:00:09;;;;;;;13.75;3.85;;;;;;;;;;5040764;28;20074;-63
2022/05/19 05:02:35;;;;;;;14.93;2.72;;;;;;;;;;5053495;28;20059;-64
2022/05/19 05:05:04;;;;;;;16.83;3.10;;;;;;;;;;5054708;28;20017;-64
2022/05/19 05:07:30;;;;;;;15.20;3.00;;;;;;;;;;5055034;28;20485;-64
2022/05/19 05:09:56;;;;;;;11.88;2.75;;;;;;;;;;5054903;28;20039;-64
2022/05/19 05:12:22;;;;;;;8.55;2.33;;;;;;;;;;5053351;28;20469;-65
2022/05/19 05:14:48;;;;;;;18.20;4.97;;;;;;;;;;5050720;28;20035;-65
2022/05/19 05:17:15;;;;;;;9.30;2.13;;;;;;;;;;5054019;28;20439;-65
2022/05/19 05:19:41;;;;;;;11.23;2.30;;;;;;;;;;5049508;28;20033;-65
2022/05/19 05:22:07;;;;;;;17.60;2.47;;;;;;;;;;5051964;28;20029;-65
2022/05/19 05:24:34;;;;;;;14.52;2.80;;;;;;;;;;5050915;28;20085;-65
2022/05/19 05:27:00;;;;;;;8.75;2.35;;;;;;;;;;5053414;28;20103;-65
2022/05/19 05:29:26;;;;;;;18.98;2.80;;;;;;;;;;5052984;28;20092;-65
2022/05/19 05:31:52;;;;;;;18.75;3.40;;;;;;;;;;5051524;28;20024;-65
2022/05/19 05:34:18;;;;;;;26.08;4.50;;;;;;;;;;5054033;28;20036;-65
2022/05/19 05:36:45;;;;;;;22.40;4.15;;;;;;;;;;5051195;28;20033;-65
2022/05/19 05:39:11;;;;;;;17.67;3.15;;;;;;;;;;5051517;28;20463;-65
2022/05/19 05:41:39;;;;;;;16.05;3.20;;;;;;;;;;5050975;28;20029;-65
2022/05/19 05:44:05;;;;;;;21.58;4.28;;;;;;;;;;5054190;28;20029;-65
2022/05/19 05:46:32;;;;;;;17.70;3.20;;;;;;;;;;5054283;28;20070;-65
2022/05/19 05:48:58;;;;;;;23.13;4.03;;;;;;;;;;5054945;28;20059;-65
2022/05/19 05:51:25;;;;;;;21.00;3.60;;;;;;;;;;5053211;28;20401;-65
2022/05/19 05:53:52;;;;;;;27.95;4.53;;;;;;;;;;5062164;28;20061;-65
2022/05/19 05:56:20;;;;;;;19.13;5.07;;;;;;;;;;5044029;28;20050;-65
2022/05/19 05:58:46;;;;;;;17.13;3.78;;;;;;;;;;5053681;28;20044;-65
2022/05/19 06:01:16;;;;;;;22.73;4.63;;;;;;;;;;5053915;28;20036;-65
2022/05/19 06:03:44;;;;;;;17.33;3.20;;;;;;;;;;5052953;28;20110;-65
2022/05/19 06:06:10;;;;;;;22.73;4.95;;;;;;;;;;5052903;28;20032;-65
2022/05/19 06:08:36;;;;;;;11.07;2.97;;;;;;;;;;5053614;28;20040;-67
2022/05/19 06:11:02;;;;;;;16.40;3.30;;;;;;;;;;5053719;28;20037;-65
2022/05/19 06:13:29;;;;;;;16.50;3.10;;;;;;;;;;5047204;28;20122;-65
2022/05/19 06:15:55;;;;;;;16.10;4.18;;;;;;;;;;5044311;28;20112;-65
2022/05/19 06:18:21;;;;;;;27.05;4.35;;;;;;;;;;5051453;28;20038;-65
2022/05/19 06:20:49;;;;;;;17.13;3.85;;;;;;;;;;5051417;28;20497;-74
2022/05/19 06:23:16;;;;;;;22.38;3.53;;;;;;;;;;5044155;28;20143;-65
2022/05/19 06:25:42;;;;;;;18.67;3.10;;;;;;;;;;5050807;28;20473;-64
2022/05/19 06:28:08;;;;;;;20.65;4.40;;;;;;;;;;5052226;28;20053;-64
2022/05/19 06:30:35;;;;;;;21.80;4.05;;;;;;;;;;5045831;28;20082;-64
2022/05/19 06:33:01;;;;;;;24.52;3.47;;;;;;;;;;5052259;28;20017;-64
2022/05/19 06:35:30;;;;;;;17.67;3.60;;;;;;;;;;5052740;28;20036;-64
2022/05/19 06:37:56;;;;;;;17.77;4.15;;;;;;;;;;5052593;28;20036;-64
2022/05/19 06:40:24;;;;;;;25.27;4.22;;;;;;;;;;5056555;28;20024;-64
2022/05/19 06:42:50;;;;;;;20.73;3.60;;;;;;;;;;5054067;28;20037;-64
2022/05/19 06:45:18;;;;;;;22.15;4.75;;;;;;;;;;5050936;28;20508;-65
2022/05/19 06:47:48;;;;;;;19.05;3.22;;;;;;;;;;5054522;28;20415;-65
2022/05/19 06:50:14;;;;;;;22.88;3.90;;;;;;;;;;5052826;28;20469;-65
2022/05/19 06:52:45;;;;;;;17.17;3.60;;;;;;;;;;5055054;28;20483;-65
2022/05/19 06:55:12;;;;;;;26.02;5.13;;;;;;;;;;5048929;28;20025;-65
2022/05/19 06:57:39;;;;;;;18.60;4.18;;;;;;;;;;5056623;28;20105;-65
2022/05/19 07:00:07;;;;;;;21.10;3.65;;;;;;;;;;5051161;28;20037;-65
2022/05/19 07:02:34;;;;;;;25.30;3.55;;;;;;;;;;5052807;28;20102;-65
2022/05/19 07:05:00;;;;;;;26.10;4.10;;;;;;;;;;5052099;28;20493;-65
2022/05/19 07:07:26;;;;;;;21.60;4.22;;;;;;;;;;5052588;28;20104;-65
2022/05/19 07:09:52;;;;;;;27.15;4.65;;;;;;;;;;5052439;28;20037;-65
2022/05/19 07:12:22;;;;;;;24.08;2.90;;;;;;;;;;5052967;28;20071;-65
2022/05/19 07:14:49;;;;;;;32.42;4.45;;;;;;;;;;5052575;28;20033;-65
2022/05/19 07:17:15;;;;;;;23.95;5.15;;;;;;;;;;5051432;28;20041;-65
2022/05/19 07:22:28;;;;;;;21.15;4.13;;;;;;;;;;5048469;28;20033;-64
2022/05/19 07:24:54;;;;;;;15.32;3.58;;;;;;;;;;5051763;28;20021;-64
2022/05/19 07:27:20;;;;;;;20.63;3.60;;;;;;;;;;5055751;28;20016;-64
2022/05/19 07:29:47;;;;;;;24.27;3.92;;;;;;;;;;5051903;28;20044;-64
2022/05/19 07:32:13;;;;;;;31.48;4.75;;;;;;;;;;5051297;28;20017;-64
2022/05/19 07:34:39;;;;;;;23.63;4.50;;;;;;;;;;5051932;28;20461;-64
2022/05/19 07:37:06;;;;;;;36.05;4.10;;;;;;;;;;5051680;28;20040;-64
2022/05/19 07:39:32;;;;;;;24.30;3.00;;;;;;;;;;5050472;28;20041;-64
2022/05/19 07:41:58;;;;;;;17.13;4.10;;;;;;;;;;5051670;28;20039;-64
2022/05/19 07:44:25;;;;;;;26.65;4.00;;;;;;;;;;5050917;28;20035;-64
2022/05/19 07:46:52;;;;;;;22.40;4.13;;;;;;;;;;5050547;28;20523;-64
2022/05/19 07:49:18;;;;;;;18.00;3.33;;;;;;;;;;5051135;28;20021;-64
2022/05/19 07:51:45;;;;;;;21.58;3.40;;;;;;;;;;5055647;28;20044;-64
2022/05/19 07:54:13;;;;;;;27.02;4.68;;;;;;;;;;5051128;28;20032;-64
2022/05/19 07:56:40;;;;;;;23.25;3.92;;;;;;;;;;5050956;28;20049;-64
2022/05/19 07:59:08;;;;;;;19.65;3.22;;;;;;;;;;5051653;28;20036;-64
2022/05/19 08:01:35;;;;;;;23.40;3.45;;;;;;;;;;5050988;28;20084;-65
2022/05/19 08:04:03;;;;;;;23.00;2.75;;;;;;;;;;5051340;28;20527;-65
2022/05/19 08:06:29;;;;;;;21.73;3.28;;;;;;;;;;5051049;28;20160;-65
2022/05/19 08:08:58;;;;;;;15.77;3.30;;;;;;;;;;5051351;28;20104;-65
2022/05/19 08:11:24;;;;;;;19.02;3.42;;;;;;;;;;5052143;28;20074;-65
2022/05/19 08:16:35;;;;;;;17.88;3.45;;;;;;;;;;5051406;28;20029;-65
2022/05/19 08:19:01;;;;;;;19.40;3.60;;;;;;;;;;5051426;28;20104;-64
2022/05/19 08:21:28;;;;;;;12.57;2.70;;;;;;;;;;5051653;28;20021;-64
2022/05/19 08:23:54;;;;;;;15.02;2.75;;;;;;;;;;5052415;28;20031;-64
2022/05/19 08:26:21;;;;;;;18.77;3.30;;;;;;;;;;5051004;28;20171;-64
2022/05/19 08:28:47;;;;;;;16.08;3.30;;;;;;;;;;5050411;28;20380;-64
2022/05/19 08:31:15;;;;;;;14.90;3.22;;;;;;;;;;5050829;28;20045;-64
2022/05/19 08:33:42;;;;;;;15.27;3.00;;;;;;;;;;5051563;28;20048;-65
2022/05/19 08:36:10;;;;;;;13.68;3.75;;;;;;;;;;5051236;28;20021;-65
2022/05/19 08:38:36;;;;;;;22.83;4.65;;;;;;;;;;5051379;28;20021;-65
2022/05/19 08:41:08;;;;;;;15.00;3.15;;;;;;;;;;5051263;28;20033;-65
2022/05/19 08:43:47;;;;;;;21.73;3.47;;;;;;;;;;5050383;28;20476;-65
2022/05/19 08:46:24;;;;;;;15.77;3.00;;;;;;;;;;5044719;28;20060;-65
2022/05/19 08:48:53;;;;;;;14.93;2.83;;;;;;;;;;5050998;28;20021;-64
2022/05/19 08:51:19;;;;;;;14.48;2.95;;;;;;;;;;5054912;28;20626;-64
2022/05/19 08:53:46;;;;;;;11.60;2.83;;;;;;;;;;5051223;28;20072;-64
2022/05/19 08:56:15;;;;;;;9.25;2.83;;;;;;;;;;5050943;28;20045;-64
2022/05/19 08:58:47;;;;;;;22.73;3.78;;;;;;;;;;5050290;28;20033;-64
2022/05/19 09:01:17;;;;;;;17.63;3.63;;;;;;;;;;5051088;28;20033;-64
2022/05/19 09:03:58;;;;;;;17.20;2.75;;;;;;;;;;5050875;28;20029;-64
2022/05/19 09:06:24;;;;;;;18.73;2.80;;;;;;;;;;5045219;28;20385;-64
2022/05/19 09:08:50;;;;;;;22.42;3.35;;;;;;;;;;5051147;28;20036;-64
2022/05/19 09:11:19;;;;;;;19.27;3.08;;;;;;;;;;5050993;28;20029;-64
2022/05/19 09:13:57;;;;;;;20.58;4.63;;;;;;;;;;5049966;28;20021;-64
2022/05/19 09:16:23;;;;;;;26.10;3.45;;;;;;;;;;5050970;28;20420;-63
2022/05/19 09:18:57;;;;;;;20.42;3.58;;;;;;;;;;5050789;28;20397;-64
2022/05/19 09:21:24;;;;;;;15.52;2.65;;;;;;;;;;5050859;28;20104;-65
2022/05/19 09:23:50;;;;;;;17.52;2.88;;;;;;;;;;5049459;28;20017;-64
2022/05/19 09:26:26;;;;;;;13.98;2.45;;;;;;;;;;5050808;28;20097;-64
2022/05/19 09:28:56;;;;;;;18.13;2.85;;;;;;;;;;5050464;28;20025;-64
2022/05/19 09:31:39;;;;;;;17.50;2.63;;;;;;;;;;5049699;28;20055;-64
2022/05/19 09:34:06;;;;;;;;;;;;;;;;;;5051132;28;20029;-64
2022/05/19 09:36:41;;;;;;;13.77;2.53;;;;;;;;;;5050115;28;19909;-64
2022/05/19 09:39:14;;;;;;;17.40;2.88;;;;;;;;;;5050291;28;20047;-64
2022/05/19 09:41:51;;;;;;;14.55;2.70;;;;;;;;;;5052471;28;20017;-64
2022/05/19 09:44:23;;;;;;;16.17;2.75;;;;;;;;;;5058475;28;20042;-64
2022/05/19 09:46:52;;;;;;;14.70;2.83;;;;;;;;;;5054174;28;20112;-64
2022/05/19 09:49:23;;;;;;;22.67;2.90;;;;;;;;;;5054350;28;20033;-64
2022/05/19 09:51:50;;;;;;;12.27;2.90;;;;;;;;;;5060447;28;20469;-64
2022/05/19 09:54:17;;;;;;;14.32;2.75;;;;;;;;;;5053908;28;20482;-64
2022/05/19 09:56:45;;;;;;;15.13;2.40;;;;;;;;;;5052958;28;20056;-64
2022/05/19 09:59:15;;;;;;;24.10;3.53;;;;;;;;;;5053649;28;20087;-64
2022/05/19 10:01:45;;;;;;;14.10;3.22;;;;;;;;;;5053846;28;20090;-64
2022/05/19 10:04:40;;;;;;;13.30;2.75;;;;;;;;;;5052983;28;20036;-64
2022/05/19 10:07:19;;;;;;;6.68;1.60;;;;;;;;;;5049107;28;20050;-64
2022/05/19 10:09:47;;;;;;;15.00;2.58;;;;;;;;;;5052495;28;20025;-64
2022/05/19 10:12:14;;;;;;;10.25;2.25;;;;;;;;;;5055482;28;20056;-64
2022/05/19 10:14:42;;;;;;;15.30;2.50;;;;;;;;;;5052723;28;20036;-64
2022/05/19 10:17:12;;;;;;;8.38;2.00;;;;;;;;;;5051596;28;20028;-64
2022/05/19 10:19:51;;;;;;;10.73;2.30;;;;;;;;;;5047552;28;20068;-64
2022/05/19 10:22:32;;;;;;;11.30;2.15;;;;;;;;;;5053117;28;20091;-64
2022/05/19 10:25:09;;;;;;;7.13;2.03;;;;;;;;;;5060773;28;20090;-64
2022/05/19 10:33:37;;;;;;;13.50;2.22;;;;;;;;;;5038120;28;20038;-64
2022/05/19 10:36:19;;;;;;;13.65;2.25;;;;;;;;;;5032215;28;20068;-64
2022/05/19 10:38:45;;;;;;;11.02;2.33;;;;;;;;;;5046154;28;20494;-64
2022/05/19 10:41:12;;;;;;;13.35;1.92;;;;;;;;;;5048874;28;20028;-64
2022/05/19 10:43:48;;;;;;;10.48;2.13;;;;;;;;;;5040673;28;20504;-64
2022/05/19 10:46:15;;;;;;;17.15;2.75;;;;;;;;;;5034636;28;20041;-64
2022/05/19 10:48:47;;;;;;;14.45;2.63;;;;;;;;;;5051180;28;20163;-64
2022/05/19 10:51:23;;;;;;;12.57;2.55;;;;;;;;;;5042418;28;20025;-64
2022/05/19 10:53:49;;;;;;;9.15;1.98;;;;;;;;;;5051967;28;20028;-64
2022/05/19 10:56:30;;;;;;;12.32;2.63;;;;;;;;;;5051391;28;20101;-64
2022/05/19 10:59:11;;;;;;;11.75;1.77;;;;;;;;;;5054786;28;20036;-64
2022/05/19 11:01:48;;;;;;;10.38;2.05;;;;;;;;;;5054299;28;20029;-64
2022/05/19 11:04:23;;;;;;;14.93;2.92;;;;;;;;;;5064502;28;20442;-64
2022/05/19 11:06:51;;;;;;;14.30;2.58;;;;;;;;;;5045131;28;20045;-64
2022/05/19 11:09:33;;;;;;;9.43;2.65;;;;;;;;;;5039274;28;20049;-64
2022/05/19 11:12:11;;;;;;;11.05;2.28;;;;;;;;;;5043207;28;20028;-64
2022/05/19 11:14:40;;;;;;;18.13;3.42;;;;;;;;;;5050815;28;20064;-64
2022/05/19 11:17:11;;;;;;;7.65;1.73;;;;;;;;;;5041491;28;20032;-64
2022/05/19 11:19:39;;;;;;;12.25;2.03;;;;;;;;;;5044075;28;20090;-64
2022/05/19 11:22:12;;;;;;;11.55;2.15;;;;;;;;;;5055069;28;20107;-64
2022/05/19 11:27:33;;;;;;;11.35;2.30;;;;;;;;;;5061491;28;20031;-64
2022/05/19 11:30:05;;;;;;;15.35;2.85;;;;;;;;;;5052311;28;20032;-64
2022/05/19 11:32:35;;;;;;;7.50;1.92;;;;;;;;;;5053071;28;20144;-64
2022/05/19 11:35:13;;;;;;;11.15;2.38;;;;;;;;;;5051255;28;20098;-64
2022/05/19 11:37:46;;;;;;;12.75;1.90;;;;;;;;;;5051882;28;20159;-64
2022/05/19 11:40:31;;;;;;;10.70;2.17;;;;;;;;;;5048731;28;20056;-64
2022/05/19 11:43:13;;;;;;;12.60;2.00;;;;;;;;;;5052393;28;20032;-64
2022/05/19 11:45:47;;;;;;;12.98;2.42;;;;;;;;;;5064472;28;20033;-64
2022/05/19 11:57:15;;;;;;;13.15;2.33;;;;;;;;;;4998343;28;20059;-64
2022/05/19 11:59:50;;;;;;;10.23;2.05;;;;;;;;;;4993033;28;20038;-64
2022/05/19 12:02:18;;;;;;;12.70;2.25;;;;;;;;;;4992035;28;20044;-64
2022/05/19 12:04:44;;;;;;;9.75;1.90;;;;;;;;;;5000580;28;20050;-64
2022/05/19 12:07:24;;;;;;;7.50;2.10;;;;;;;;;;4997485;28;20513;-64
2022/05/19 12:09:53;;;;;;;11.13;1.90;;;;;;;;;;5004657;28;20066;-65
2022/05/19 12:12:24;;;;;;;11.18;2.42;;;;;;;;;;4997427;28;20042;-64
2022/05/19 12:15:06;;;;;;;11.30;2.33;;;;;;;;;;4994124;28;20037;-64
2022/05/19 12:17:38;;;;;;;17.20;2.63;;;;;;;;;;4999292;28;20084;-64
2022/05/19 12:20:04;;;;;;;;;;;;;;;;;;4991112;28;20410;-64
2022/05/19 12:22:30;;;;;;;14.27;2.20;;;;;;;;;;4996438;28;19905;-64
2022/05/19 12:25:17;;;;;;;14.82;2.58;;;;;;;;;;4998132;28;20042;-64
2022/05/19 12:27:53;;;;;;;9.70;2.10;;;;;;;;;;4990484;28;20056;-64
2022/05/19 12:33:23;;;;;;;15.43;2.97;;;;;;;;;;4990801;28;20042;-64
2022/05/19 12:35:52;;;;;;;13.57;2.30;;;;;;;;;;4992515;28;20553;-64
2022/05/19 12:38:38;;;;;;;17.67;2.78;;;;;;;;;;4992477;28;20109;-64
2022/05/19 12:41:05;;;;;;;13.73;3.17;;;;;;;;;;4992409;28;20131;-64
2022/05/19 12:43:38;;;;;;;16.67;3.72;;;;;;;;;;4992791;28;20026;-64
2022/05/19 12:46:07;;;;;;;15.77;2.33;;;;;;;;;;4992357;28;20034;-64
2022/05/19 12:48:33;;;;;;;21.27;3.15;;;;;;;;;;4992570;28;20471;-64
2022/05/19 12:51:05;;;;;;;12.25;2.30;;;;;;;;;;5001791;28;20030;-64
2022/05/19 12:53:40;;;;;;;18.05;2.70;;;;;;;;;;5031941;28;20536;-64
2022/05/19 12:56:08;;;;;;;17.38;2.88;;;;;;;;;;5043780;28;20072;-64
2022/05/19 12:58:35;;;;;;;10.75;2.30;;;;;;;;;;5071941;28;20033;-64
2022/05/19 13:01:29;;;;;;;14.73;2.95;;;;;;;;;;5071387;28;20119;-64
2022/05/19 13:04:04;;;;;;;12.85;2.22;;;;;;;;;;5069508;28;20127;-64
2022/05/19 13:06:31;;;;;;;7.60;2.28;;;;;;;;;;5071283;28;20044;-64
2022/05/19 13:08:57;;;;;;;16.23;2.97;;;;;;;;;;5071471;28;20492;-64
2022/05/19 13:11:35;;;;;;;12.25;2.72;;;;;;;;;;5071795;28;20041;-64
2022/05/19 13:14:03;;;;;;;14.23;2.60;;;;;;;;;;5071397;28;20037;-64
2022/05/19 13:16:34;;;;;;;15.00;2.78;;;;;;;;;;5073870;28;20023;-64
2022/05/19 13:19:01;;;;;;;18.52;3.10;;;;;;;;;;5075059;28;20024;-64
2022/05/19 13:21:36;;;;;;;18.17;3.00;;;;;;;;;;5075190;28;20397;-64
2022/05/19 13:24:06;;;;;;;21.17;3.42;;;;;;;;;;5074988;28;20056;-64
2022/05/19 13:26:34;;;;;;;17.92;2.60;;;;;;;;;;5075514;28;20051;-64
2022/05/19 13:31:51;;;;;;;13.68;2.85;;;;;;;;;;5075178;28;20082;-64
2022/05/19 13:34:18;;;;;;;14.32;2.97;;;;;;;;;;5074712;28;20036;-64
2022/05/19 13:36:51;;;;;;;19.10;3.28;;;;;;;;;;5075542;28;20036;-64
2022/05/19 13:39:19;;;;;;;14.18;2.55;;;;;;;;;;5074885;28;20032;-64
2022/05/19 13:41:52;;;;;;;15.30;2.50;;;;;;;;;;5050680;28;20025;-64
2022/05/19 13:44:23;;;;;;;13.02;2.25;;;;;;;;;;5049289;28;20465;-64
2022/05/19 13:46:49;;;;;;;15.82;2.53;;;;;;;;;;5052124;28;20029;-64
2022/05/19 13:49:19;;;;;;;17.48;2.67;;;;;;;;;;5052593;28;20507;-64
2022/05/19 13:51:46;;;;;;;10.32;2.35;;;;;;;;;;5058219;28;20037;-64
2022/05/19 13:54:25;;;;;;;14.15;2.42;;;;;;;;;;5053035;28;20027;-64
2022/05/19 13:56:57;;;;;;;11.85;2.30;;;;;;;;;;5052455;28;20048;-64
2022/05/19 13:59:28;;;;;;;14.43;3.47;;;;;;;;;;5052912;28;20103;-64
2022/05/19 14:01:55;;;;;;;10.95;1.95;;;;;;;;;;5053046;28;20029;-64
2022/05/19 14:04:22;;;;;;;10.90;3.00;;;;;;;;;;5053669;28;20044;-64
2022/05/19 14:06:48;;;;;;;16.98;3.30;;;;;;;;;;5052785;28;20033;-64
2022/05/19 14:09:21;;;;;;;16.75;3.13;;;;;;;;;;5053100;28;20087;-64
2022/05/19 14:11:47;;;;;;;8.10;2.47;;;;;;;;;;5053045;28;20039;-64
2022/05/19 14:14:22;;;;;;;18.70;2.85;;;;;;;;;;5052388;28;20110;-64
2022/05/19 14:16:49;;;;;;;13.57;3.45;;;;;;;;;;5052745;28;20082;-64
2022/05/19 14:19:28;;;;;;;12.50;2.67;;;;;;;;;;5056529;28;20057;-64
2022/05/19 14:21:54;;;;;;;13.57;2.72;;;;;;;;;;5052585;28;20044;-64
2022/05/19 14:24:20;;;;;;;22.58;3.42;;;;;;;;;;5052148;28;20040;-64
2022/05/19 14:26:56;;;;;;;14.10;2.17;;;;;;;;;;5050966;28;20405;-64
2022/05/19 14:29:26;;;;;;;11.77;2.92;;;;;;;;;;5051793;28;20560;-64
2022/05/19 14:31:58;;;;;;;11.50;2.70;;;;;;;;;;5052305;28;20583;-64
2022/05/19 14:34:38;;;;;;;15.30;2.72;;;;;;;;;;5049083;28;20050;-64
2022/05/19 14:37:21;;;;;;;16.17;2.33;;;;;;;;;;5049037;28;20041;-64
2022/05/19 14:39:51;;;;;;;12.55;2.53;;;;;;;;;;5052765;28;20028;-64
2022/05/19 14:45:20;;;;;;;17.42;2.80;;;;;;;;;;5049597;28;20091;-64
2022/05/19 14:47:49;;;;;;;13.07;2.55;;;;;;;;;;5049440;28;20025;-64
2022/05/19 14:50:17;;;;;;;10.25;1.85;;;;;;;;;;5049860;28;20037;-64
2022/05/19 14:52:50;;;;;;;11.25;2.47;;;;;;;;;;5049104;28;20075;-64
2022/05/19 14:55:30;;;;;;;12.02;2.13;;;;;;;;;;5049760;28;20039;-64
2022/05/19 14:57:58;;;;;;;13.57;2.15;;;;;;;;;;5049459;28;20075;-64
2022/05/19 15:00:26;;;;;;;12.40;2.95;;;;;;;;;;5048355;28;20501;-64
2022/05/19 15:02:52;;;;;;;17.92;2.65;;;;;;;;;;5048153;28;20151;-64
2022/05/19 15:05:19;;;;;;;12.05;2.17;;;;;;;;;;5049565;28;20051;-64
2022/05/19 15:07:50;;;;;;;13.43;2.00;;;;;;;;;;5047813;28;20087;-64
2022/05/19 15:10:18;;;;;;;15.60;2.20;;;;;;;;;;5049399;28;20541;-64
2022/05/19 15:12:44;;;;;;;12.38;2.30;;;;;;;;;;5049253;28;20032;-64
2022/05/19 15:15:11;;;;;;;13.35;2.40;;;;;;;;;;5048847;28;20033;-64